Time;durP1;ratioP1;P1;durP2;ratioP2;P2;SDS_P1;SDS_P2;PMS_P1;PMS_P2;Temp;Humidity;BMP_temperature;BMP_pressure;BME280_temperature;BME280_humidity;BME280_pressure;Samples;Min_cycle;Max_cycle;Signal;HPM_P1;HPM_P2
2023/09/19 00:00:30;;;;;;;0.00;0.00;;;;;;;;;;1742291;28;20194;-82
2023/09/19 00:01:22;;;;;;;0.00;0.00;;;;;;;;;;1745500;28;20191;-82
2023/09/19 00:02:13;;;;;;;0.00;0.00;;;;;;;;;;1748196;28;20241;-83
2023/09/19 00:03:08;;;;;;;0.00;0.00;;;;;;;;;;1746509;28;20195;-84
2023/09/19 00:04:00;;;;;;;0.00;0.00;;;;;;;;;;1742039;28;20188;-83
2023/09/19 00:04:52;;;;;;;0.00;0.00;;;;;;;;;;1748699;28;20206;-84
2023/09/19 00:05:44;;;;;;;0.00;0.00;;;;;;;;;;1746755;28;20222;-83
2023/09/19 00:06:35;;;;;;;0.00;0.00;;;;;;;;;;1742892;28;20621;-83
2023/09/19 00:07:26;;;;;;;0.00;0.00;;;;;;;;;;1744921;28;20207;-83
2023/09/19 00:08:22;;;;;;;0.00;0.00;;;;;;;;;;1744887;28;20222;-83
2023/09/19 00:09:13;;;;;;;0.00;0.00;;;;;;;;;;1741212;28;20192;-83
2023/09/19 00:10:04;;;;;;;0.00;0.00;;;;;;;;;;1741880;28;20230;-84
2023/09/19 00:10:58;;;;;;;0.00;0.00;;;;;;;;;;1746264;28;20234;-84
2023/09/19 00:11:51;;;;;;;0.00;0.00;;;;;;;;;;1743969;28;20231;-84
2023/09/19 00:12:43;;;;;;;0.00;0.00;;;;;;;;;;1747070;28;20199;-84
2023/09/19 00:13:35;;;;;;;0.00;0.00;;;;;;;;;;1747447;28;20195;-83
2023/09/19 00:14:26;;;;;;;0.00;0.00;;;;;;;;;;1742682;28;20606;-83
2023/09/19 00:15:20;;;;;;;0.00;0.00;;;;;;;;;;1736841;28;20192;-84
2023/09/19 00:16:11;;;;;;;0.00;0.00;;;;;;;;;;1742486;28;20206;-83
2023/09/19 00:17:07;;;;;;;0.00;0.00;;;;;;;;;;1743638;28;20261;-83
2023/09/19 00:17:59;;;;;;;0.00;0.00;;;;;;;;;;1743892;28;20198;-83
2023/09/19 00:18:51;;;;;;;0.00;0.00;;;;;;;;;;1746840;28;20238;-83
2023/09/19 00:19:42;;;;;;;0.00;0.00;;;;;;;;;;1745668;28;20217;-83
2023/09/19 00:20:36;;;;;;;0.00;0.00;;;;;;;;;;1741184;28;20241;-83
2023/09/19 00:21:28;;;;;;;0.00;0.00;;;;;;;;;;1739705;28;20634;-81
2023/09/19 00:22:19;;;;;;;0.00;0.00;;;;;;;;;;1739493;28;20237;-80
2023/09/19 00:23:11;;;;;;;0.00;0.00;;;;;;;;;;1738032;28;20206;-83
2023/09/19 00:24:02;;;;;;;0.00;0.00;;;;;;;;;;1741314;28;20231;-83
2023/09/19 00:24:53;;;;;;;0.00;0.00;;;;;;;;;;1736205;28;20227;-83
2023/09/19 00:25:45;;;;;;;0.00;0.00;;;;;;;;;;1744429;28;20231;-83
2023/09/19 00:26:38;;;;;;;0.00;0.00;;;;;;;;;;1743630;28;20217;-81
2023/09/19 00:27:30;;;;;;;0.00;0.00;;;;;;;;;;1738975;28;20283;-82
2023/09/19 00:28:22;;;;;;;0.00;0.00;;;;;;;;;;1739549;28;20291;-82
2023/09/19 00:29:16;;;;;;;0.00;0.00;;;;;;;;;;1744503;28;20222;-82
2023/09/19 00:30:08;;;;;;;0.00;0.00;;;;;;;;;;1744294;28;20290;-83
2023/09/19 00:31:01;;;;;;;0.00;0.00;;;;;;;;;;1738931;28;20235;-83
2023/09/19 00:31:53;;;;;;;0.00;0.00;;;;;;;;;;1747527;28;20206;-83
2023/09/19 00:32:47;;;;;;;0.00;0.00;;;;;;;;;;1745274;28;20217;-83
2023/09/19 00:33:39;;;;;;;0.00;0.00;;;;;;;;;;1747236;28;20211;-83
2023/09/19 00:34:34;;;;;;;0.00;0.00;;;;;;;;;;1745965;28;20207;-81
2023/09/19 00:35:25;;;;;;;0.00;0.00;;;;;;;;;;1748675;28;20199;-82
2023/09/19 00:36:18;;;;;;;0.00;0.00;;;;;;;;;;1744403;28;20175;-82
2023/09/19 00:37:11;;;;;;;0.00;0.00;;;;;;;;;;1745742;28;20213;-82
2023/09/19 00:38:03;;;;;;;0.00;0.00;;;;;;;;;;1744253;28;20198;-80
2023/09/19 00:38:55;;;;;;;0.00;0.00;;;;;;;;;;1747354;28;20202;-82
2023/09/19 00:39:46;;;;;;;0.00;0.00;;;;;;;;;;1745436;28;20919;-82
2023/09/19 00:40:38;;;;;;;0.00;0.00;;;;;;;;;;1745197;28;20230;-82
2023/09/19 00:41:30;;;;;;;0.00;0.00;;;;;;;;;;1746939;28;20210;-81
2023/09/19 00:42:21;;;;;;;0.00;0.00;;;;;;;;;;1746883;28;20227;-82
2023/09/19 00:43:16;;;;;;;0.00;0.00;;;;;;;;;;1747280;28;20210;-82
2023/09/19 00:44:09;;;;;;;0.00;0.00;;;;;;;;;;1747942;28;20195;-81
2023/09/19 00:45:03;;;;;;;0.00;0.00;;;;;;;;;;1747949;28;20195;-82
2023/09/19 00:45:55;;;;;;;0.00;0.00;;;;;;;;;;1747030;28;20226;-81
2023/09/19 00:46:49;;;;;;;0.00;0.00;;;;;;;;;;1747197;28;20187;-82
2023/09/19 00:47:41;;;;;;;0.00;0.00;;;;;;;;;;1746739;28;20198;-82
2023/09/19 00:48:35;;;;;;;0.00;0.00;;;;;;;;;;1746994;28;20199;-82
2023/09/19 00:49:26;;;;;;;0.00;0.00;;;;;;;;;;1746925;28;20252;-82
2023/09/19 00:50:19;;;;;;;0.00;0.00;;;;;;;;;;1744827;28;20203;-84
2023/09/19 00:51:13;;;;;;;0.00;0.00;;;;;;;;;;1744500;28;20207;-82
2023/09/19 00:52:05;;;;;;;0.00;0.00;;;;;;;;;;1744899;28;20654;-83
2023/09/19 00:52:56;;;;;;;0.00;0.00;;;;;;;;;;1743951;28;20206;-84
2023/09/19 00:53:48;;;;;;;0.00;0.00;;;;;;;;;;1744561;28;20202;-83
2023/09/19 00:54:39;;;;;;;0.00;0.00;;;;;;;;;;1743498;28;20234;-84
2023/09/19 00:55:32;;;;;;;0.00;0.00;;;;;;;;;;1750968;28;20221;-83
2023/09/19 00:56:24;;;;;;;0.00;0.00;;;;;;;;;;1751442;28;20209;-82
2023/09/19 00:57:17;;;;;;;0.00;0.00;;;;;;;;;;1747634;28;20203;-82
2023/09/19 00:58:08;;;;;;;0.00;0.00;;;;;;;;;;1747876;28;20191;-82
2023/09/19 00:59:02;;;;;;;0.00;0.00;;;;;;;;;;1748545;28;20209;-82
2023/09/19 00:59:55;;;;;;;0.00;0.00;;;;;;;;;;1747142;28;20529;-82
2023/09/19 01:00:48;;;;;;;0.00;0.00;;;;;;;;;;1744940;28;20323;-83
2023/09/19 01:01:40;;;;;;;0.00;0.00;;;;;;;;;;1744087;28;20198;-82
2023/09/19 01:02:31;;;;;;;0.00;0.00;;;;;;;;;;1749212;28;20261;-82
2023/09/19 01:03:24;;;;;;;0.00;0.00;;;;;;;;;;1747811;28;20244;-83
2023/09/19 01:04:17;;;;;;;0.00;0.00;;;;;;;;;;1743649;28;20199;-84
2023/09/19 01:05:08;;;;;;;0.00;0.00;;;;;;;;;;1743203;28;20195;-84
2023/09/19 01:06:02;;;;;;;0.00;0.00;;;;;;;;;;1746156;28;20261;-84
2023/09/19 01:06:53;;;;;;;0.00;0.00;;;;;;;;;;1747264;28;20266;-84
2023/09/19 01:07:45;;;;;;;0.00;0.00;;;;;;;;;;1747727;28;20191;-84
2023/09/19 01:08:37;;;;;;;0.00;0.00;;;;;;;;;;1747909;28;20203;-84
2023/09/19 01:09:28;;;;;;;0.00;0.00;;;;;;;;;;1747927;28;20195;-84
2023/09/19 01:10:20;;;;;;;0.00;0.00;;;;;;;;;;1746601;28;20209;-85
2023/09/19 01:11:14;;;;;;;0.00;0.00;;;;;;;;;;1748308;28;20199;-84
2023/09/19 01:12:08;;;;;;;0.00;0.00;;;;;;;;;;1747984;28;20202;-84
2023/09/19 01:13:05;;;;;;;0.00;0.00;;;;;;;;;;1747636;28;20195;-84
2023/09/19 01:13:58;;;;;;;0.00;0.00;;;;;;;;;;1754539;28;20195;-84
2023/09/19 01:14:57;;;;;;;0.00;0.00;;;;;;;;;;1748651;28;20257;-84
2023/09/19 01:15:52;;;;;;;0.00;0.00;;;;;;;;;;1746687;28;20246;-84
2023/09/19 01:16:50;;;;;;;0.00;0.00;;;;;;;;;;1747518;28;20195;-84
2023/09/19 01:17:46;;;;;;;0.00;0.00;;;;;;;;;;1748782;28;20203;-84
2023/09/19 01:18:45;;;;;;;0.00;0.00;;;;;;;;;;1749821;28;20195;-84
2023/09/19 01:19:49;;;;;;;0.00;0.00;;;;;;;;;;1754651;28;20641;-84
2023/09/19 01:20:44;;;;;;;0.00;0.00;;;;;;;;;;1746660;28;20676;-85
2023/09/19 01:21:42;;;;;;;0.00;0.00;;;;;;;;;;1744037;28;20241;-84
2023/09/19 01:22:39;;;;;;;0.00;0.00;;;;;;;;;;1742493;28;20684;-84
2023/09/19 01:23:39;;;;;;;0.00;0.00;;;;;;;;;;1745684;28;20252;-85
2023/09/19 01:24:40;;;;;;;0.00;0.00;;;;;;;;;;1738994;28;20246;-84
2023/09/19 01:25:43;;;;;;;0.00;0.00;;;;;;;;;;1743674;28;20266;-85
2023/09/19 01:26:45;;;;;;;0.00;0.00;;;;;;;;;;1744859;28;20675;-85
2023/09/19 01:27:57;;;;;;;0.00;0.00;;;;;;;;;;1741492;28;20224;-84
2023/09/19 01:29:02;;;;;;;0.00;0.00;;;;;;;;;;1732588;28;20200;-84
2023/09/19 01:29:54;;;;;;;0.00;0.00;;;;;;;;;;1737329;28;20200;-84
2023/09/19 01:30:49;;;;;;;0.00;0.00;;;;;;;;;;1736200;28;20553;-84
2023/09/19 01:31:44;;;;;;;0.00;0.00;;;;;;;;;;1737406;28;20208;-84
2023/09/19 01:32:35;;;;;;;0.00;0.00;;;;;;;;;;1737269;28;20628;-84
2023/09/19 01:33:26;;;;;;;0.00;0.00;;;;;;;;;;1737194;28;20245;-84
2023/09/19 01:34:18;;;;;;;0.00;0.00;;;;;;;;;;1737209;28;20200;-84
2023/09/19 01:35:12;;;;;;;0.00;0.00;;;;;;;;;;1737402;28;20242;-85
2023/09/19 01:36:05;;;;;;;0.00;0.00;;;;;;;;;;1741110;28;20267;-84
2023/09/19 01:36:58;;;;;;;0.00;0.00;;;;;;;;;;1741365;28;20191;-84
2023/09/19 01:37:49;;;;;;;0.00;0.00;;;;;;;;;;1741160;28;20200;-84
2023/09/19 01:38:40;;;;;;;0.00;0.00;;;;;;;;;;1741168;28;20222;-84
2023/09/19 01:39:33;;;;;;;0.00;0.00;;;;;;;;;;1742051;28;20238;-84
2023/09/19 01:40:24;;;;;;;0.00;0.00;;;;;;;;;;1738528;28;20211;-85
2023/09/19 01:41:19;;;;;;;0.00;0.00;;;;;;;;;;1738727;28;20183;-85
2023/09/19 01:42:19;;;;;;;0.00;0.00;;;;;;;;;;1736890;28;20904;-85
2023/09/19 01:43:13;;;;;;;0.00;0.00;;;;;;;;;;1732827;28;20242;-85
2023/09/19 01:44:05;;;;;;;0.00;0.00;;;;;;;;;;1737294;28;20199;-85
2023/09/19 01:45:02;;;;;;;0.00;0.00;;;;;;;;;;1738514;28;20211;-85
2023/09/19 01:46:00;;;;;;;0.00;0.00;;;;;;;;;;1740498;28;20251;-84
2023/09/19 01:46:51;;;;;;;0.00;0.00;;;;;;;;;;1742493;28;20217;-84
2023/09/19 01:47:45;;;;;;;0.00;0.00;;;;;;;;;;1742440;28;20207;-83
2023/09/19 01:48:40;;;;;;;0.00;0.00;;;;;;;;;;1742310;28;20203;-84
2023/09/19 01:49:34;;;;;;;0.00;0.00;;;;;;;;;;1742540;28;20191;-84
2023/09/19 01:50:32;;;;;;;0.00;0.00;;;;;;;;;;1739180;28;20234;-85
2023/09/19 01:51:29;;;;;;;0.00;0.00;;;;;;;;;;1737203;28;20204;-85
2023/09/19 01:52:22;;;;;;;0.00;0.00;;;;;;;;;;1733906;28;20199;-85
2023/09/19 01:53:16;;;;;;;0.00;0.00;;;;;;;;;;1735680;28;20230;-85
2023/09/19 01:54:10;;;;;;;0.00;0.00;;;;;;;;;;1735612;28;20195;-85
2023/09/19 01:55:07;;;;;;;0.00;0.00;;;;;;;;;;1737530;28;20200;-84
2023/09/19 01:55:58;;;;;;;0.00;0.00;;;;;;;;;;1736679;28;20246;-82
2023/09/19 01:56:51;;;;;;;0.00;0.00;;;;;;;;;;1737552;28;20196;-82
2023/09/19 01:57:47;;;;;;;0.00;0.00;;;;;;;;;;1739273;28;20262;-83
2023/09/19 01:58:39;;;;;;;0.00;0.00;;;;;;;;;;1737599;28;20685;-84
2023/09/19 01:59:35;;;;;;;0.00;0.00;;;;;;;;;;1740222;28;20191;-84
2023/09/19 02:00:29;;;;;;;0.00;0.00;;;;;;;;;;1738020;28;20226;-84
2023/09/19 02:01:24;;;;;;;0.00;0.00;;;;;;;;;;1739549;28;20223;-83
2023/09/19 02:02:15;;;;;;;0.00;0.00;;;;;;;;;;1740632;28;20200;-84
2023/09/19 02:03:07;;;;;;;0.00;0.00;;;;;;;;;;1740482;28;20211;-84
2023/09/19 02:03:59;;;;;;;0.00;0.00;;;;;;;;;;1738413;28;20206;-84
2023/09/19 02:04:50;;;;;;;0.00;0.00;;;;;;;;;;1740035;28;20246;-84
2023/09/19 02:05:42;;;;;;;0.00;0.00;;;;;;;;;;1737276;28;20227;-84
2023/09/19 02:06:34;;;;;;;0.00;0.00;;;;;;;;;;1737708;28;20204;-84
2023/09/19 02:07:27;;;;;;;0.00;0.00;;;;;;;;;;1737738;28;20236;-84
2023/09/19 02:08:20;;;;;;;0.00;0.00;;;;;;;;;;1737387;28;20206;-84
2023/09/19 02:09:11;;;;;;;0.00;0.00;;;;;;;;;;1737990;28;20230;-83
2023/09/19 02:10:05;;;;;;;0.00;0.00;;;;;;;;;;1736505;28;20192;-83
2023/09/19 02:10:57;;;;;;;0.00;0.00;;;;;;;;;;1735678;28;20311;-82
2023/09/19 02:11:49;;;;;;;0.00;0.00;;;;;;;;;;1736651;28;20259;-83
2023/09/19 02:12:40;;;;;;;0.00;0.00;;;;;;;;;;1736677;28;20266;-83
2023/09/19 02:13:32;;;;;;;0.00;0.00;;;;;;;;;;1736551;28;20897;-82
2023/09/19 02:14:23;;;;;;;0.00;0.00;;;;;;;;;;1736765;28;20612;-83
2023/09/19 02:15:15;;;;;;;0.00;0.00;;;;;;;;;;1735401;28;20196;-82
2023/09/19 02:16:09;;;;;;;0.00;0.00;;;;;;;;;;1729936;28;20180;-82
2023/09/19 02:17:02;;;;;;;0.00;0.00;;;;;;;;;;1736673;28;20257;-82
2023/09/19 02:17:56;;;;;;;0.00;0.00;;;;;;;;;;1743265;28;20297;-82
2023/09/19 02:18:49;;;;;;;0.00;0.00;;;;;;;;;;1736497;28;20253;-83
2023/09/19 02:19:40;;;;;;;0.00;0.00;;;;;;;;;;1736497;28;20200;-82
2023/09/19 02:20:33;;;;;;;0.00;0.00;;;;;;;;;;1736372;28;20243;-83
2023/09/19 02:21:24;;;;;;;0.00;0.00;;;;;;;;;;1738202;28;20227;-83
2023/09/19 02:22:16;;;;;;;0.00;0.00;;;;;;;;;;1738030;28;20218;-83
2023/09/19 02:23:08;;;;;;;0.00;0.00;;;;;;;;;;1737740;28;21072;-83
2023/09/19 02:24:00;;;;;;;0.00;0.00;;;;;;;;;;1737725;28;20534;-83
2023/09/19 02:24:52;;;;;;;0.00;0.00;;;;;;;;;;1738234;28;20954;-83
2023/09/19 02:25:44;;;;;;;0.00;0.00;;;;;;;;;;1738445;28;20231;-84
2023/09/19 02:26:36;;;;;;;0.00;0.00;;;;;;;;;;1739554;28;20215;-84
2023/09/19 02:27:28;;;;;;;0.00;0.00;;;;;;;;;;1739879;28;20216;-84
2023/09/19 02:28:19;;;;;;;0.00;0.00;;;;;;;;;;1748663;28;20198;-83
2023/09/19 02:29:12;;;;;;;0.00;0.00;;;;;;;;;;1752178;28;20247;-84
2023/09/19 02:30:06;;;;;;;0.00;0.00;;;;;;;;;;1747196;28;20199;-83
2023/09/19 02:30:57;;;;;;;0.00;0.00;;;;;;;;;;1739043;28;20684;-84
2023/09/19 02:31:49;;;;;;;0.00;0.00;;;;;;;;;;1748250;28;20240;-83
2023/09/19 02:32:42;;;;;;;0.00;0.00;;;;;;;;;;1747412;28;20629;-83
2023/09/19 02:33:35;;;;;;;0.00;0.00;;;;;;;;;;1747900;28;20225;-83
2023/09/19 02:34:27;;;;;;;0.00;0.00;;;;;;;;;;1746531;28;20198;-84
2023/09/19 02:35:20;;;;;;;0.00;0.00;;;;;;;;;;1744891;28;20202;-84
2023/09/19 02:36:11;;;;;;;0.00;0.00;;;;;;;;;;1744987;28;20207;-84
2023/09/19 02:37:04;;;;;;;0.00;0.00;;;;;;;;;;1745963;28;20197;-84
2023/09/19 02:37:56;;;;;;;0.00;0.00;;;;;;;;;;1745840;28;20587;-83
2023/09/19 02:38:48;;;;;;;0.00;0.00;;;;;;;;;;1745779;28;20218;-83
2023/09/19 02:39:40;;;;;;;0.00;0.00;;;;;;;;;;1748032;28;20286;-83
2023/09/19 02:40:31;;;;;;;0.00;0.00;;;;;;;;;;1744228;28;20207;-84
2023/09/19 02:41:22;;;;;;;0.00;0.00;;;;;;;;;;1746627;28;20239;-83
2023/09/19 02:42:14;;;;;;;0.00;0.00;;;;;;;;;;1746937;28;20194;-84
2023/09/19 02:43:06;;;;;;;0.00;0.00;;;;;;;;;;1747092;28;20195;-83
2023/09/19 02:43:59;;;;;;;0.00;0.00;;;;;;;;;;1749629;28;20237;-83
2023/09/19 02:44:51;;;;;;;0.00;0.00;;;;;;;;;;1749610;28;20196;-84
2023/09/19 02:45:42;;;;;;;0.00;0.00;;;;;;;;;;1743712;28;20397;-84
2023/09/19 02:46:33;;;;;;;0.00;0.00;;;;;;;;;;1745162;28;20513;-84
2023/09/19 02:47:26;;;;;;;0.00;0.00;;;;;;;;;;1746600;28;20213;-84
2023/09/19 02:48:18;;;;;;;0.00;0.00;;;;;;;;;;1745225;28;20279;-84
2023/09/19 02:49:13;;;;;;;0.00;0.00;;;;;;;;;;1748997;28;20187;-84
2023/09/19 02:50:04;;;;;;;0.00;0.00;;;;;;;;;;1742864;28;20206;-84
2023/09/19 02:50:55;;;;;;;0.00;0.00;;;;;;;;;;1743562;28;20227;-84
2023/09/19 02:51:48;;;;;;;0.00;0.00;;;;;;;;;;1746107;28;20234;-84
2023/09/19 02:52:39;;;;;;;0.00;0.00;;;;;;;;;;1744625;28;20920;-84
2023/09/19 02:53:30;;;;;;;0.00;0.00;;;;;;;;;;1739538;28;20203;-84
2023/09/19 02:54:23;;;;;;;0.00;0.00;;;;;;;;;;1740124;28;20609;-84
2023/09/19 02:55:17;;;;;;;0.00;0.00;;;;;;;;;;1748439;28;20710;-84
2023/09/19 02:56:09;;;;;;;0.00;0.00;;;;;;;;;;1735508;28;20290;-84
2023/09/19 02:57:03;;;;;;;0.00;0.00;;;;;;;;;;1744855;28;20621;-83
2023/09/19 02:57:54;;;;;;;0.00;0.00;;;;;;;;;;1744283;28;20222;-83
2023/09/19 02:58:45;;;;;;;0.00;0.00;;;;;;;;;;1746847;28;20272;-82
2023/09/19 02:59:38;;;;;;;0.00;0.00;;;;;;;;;;1745437;28;20199;-83
2023/09/19 03:00:29;;;;;;;0.00;0.00;;;;;;;;;;1742347;28;20210;-83
2023/09/19 03:01:20;;;;;;;0.00;0.00;;;;;;;;;;1743666;28;20257;-83
2023/09/19 03:02:13;;;;;;;0.00;0.00;;;;;;;;;;1746775;28;20702;-83
2023/09/19 03:03:06;;;;;;;0.00;0.00;;;;;;;;;;1738847;28;20204;-83
2023/09/19 03:03:58;;;;;;;0.00;0.00;;;;;;;;;;1744852;28;20537;-82
2023/09/19 03:04:51;;;;;;;0.00;0.00;;;;;;;;;;1745214;28;20210;-82
2023/09/19 03:05:46;;;;;;;0.00;0.00;;;;;;;;;;1746905;28;20246;-82
2023/09/19 03:06:39;;;;;;;0.00;0.00;;;;;;;;;;1747181;28;20302;-83
2023/09/19 03:07:31;;;;;;;0.00;0.00;;;;;;;;;;1749263;28;20202;-83
2023/09/19 03:08:22;;;;;;;0.00;0.00;;;;;;;;;;1746230;28;20202;-83
2023/09/19 03:09:15;;;;;;;0.00;0.00;;;;;;;;;;1751356;28;20198;-83
2023/09/19 03:10:07;;;;;;;0.00;0.00;;;;;;;;;;1742770;28;20672;-83
2023/09/19 03:10:58;;;;;;;0.00;0.00;;;;;;;;;;1735727;28;20250;-83
2023/09/19 03:11:50;;;;;;;0.00;0.00;;;;;;;;;;1744799;28;20253;-83
2023/09/19 03:12:42;;;;;;;0.00;0.00;;;;;;;;;;1745959;28;20199;-83
2023/09/19 03:13:33;;;;;;;0.00;0.00;;;;;;;;;;1744423;28;20223;-83
2023/09/19 03:14:25;;;;;;;0.00;0.00;;;;;;;;;;1749161;28;20614;-83
2023/09/19 03:15:17;;;;;;;0.00;0.00;;;;;;;;;;1745693;28;20544;-83
2023/09/19 03:16:08;;;;;;;0.00;0.00;;;;;;;;;;1743740;28;20206;-83
2023/09/19 03:17:00;;;;;;;0.00;0.00;;;;;;;;;;1744954;28;20911;-83
2023/09/19 03:17:53;;;;;;;0.00;0.00;;;;;;;;;;1745793;28;20234;-83
2023/09/19 03:18:47;;;;;;;0.00;0.00;;;;;;;;;;1738648;28;20204;-83
2023/09/19 03:19:39;;;;;;;0.00;0.00;;;;;;;;;;1742611;28;20195;-83
2023/09/19 03:20:31;;;;;;;0.00;0.00;;;;;;;;;;1744466;28;20249;-83
2023/09/19 03:21:22;;;;;;;0.00;0.00;;;;;;;;;;1744710;28;20214;-82
2023/09/19 03:22:14;;;;;;;0.00;0.00;;;;;;;;;;1748129;28;20194;-83
2023/09/19 03:23:07;;;;;;;0.00;0.00;;;;;;;;;;1744150;28;20225;-83
2023/09/19 03:23:58;;;;;;;0.00;0.00;;;;;;;;;;1746909;28;20747;-83
2023/09/19 03:24:49;;;;;;;0.00;0.00;;;;;;;;;;1746166;28;20581;-83
2023/09/19 03:25:41;;;;;;;0.00;0.00;;;;;;;;;;1742433;28;20588;-83
2023/09/19 03:26:33;;;;;;;0.00;0.00;;;;;;;;;;1744399;28;20203;-83
2023/09/19 03:27:24;;;;;;;0.00;0.00;;;;;;;;;;1746430;28;20253;-83
2023/09/19 03:28:16;;;;;;;0.00;0.00;;;;;;;;;;1740487;28;20223;-83
2023/09/19 03:29:08;;;;;;;0.00;0.00;;;;;;;;;;1738768;28;20203;-83
2023/09/19 03:30:00;;;;;;;0.00;0.00;;;;;;;;;;1734196;28;20196;-83
2023/09/19 03:31:01;;;;;;;0.00;0.00;;;;;;;;;;1736105;28;20231;-83
2023/09/19 03:31:54;;;;;;;0.00;0.00;;;;;;;;;;1740823;28;20227;-84
2023/09/19 03:32:46;;;;;;;0.00;0.00;;;;;;;;;;1736787;28;20215;-84
2023/09/19 03:33:37;;;;;;;0.00;0.00;;;;;;;;;;1740446;28;20214;-83
2023/09/19 03:34:29;;;;;;;0.00;0.00;;;;;;;;;;1743447;28;20237;-83
2023/09/19 03:35:22;;;;;;;0.00;0.00;;;;;;;;;;1741821;28;20794;-84
2023/09/19 03:36:14;;;;;;;0.00;0.00;;;;;;;;;;1748316;28;20206;-84
2023/09/19 03:37:06;;;;;;;0.00;0.00;;;;;;;;;;1744190;28;20259;-84
2023/09/19 03:37:57;;;;;;;0.00;0.00;;;;;;;;;;1738355;28;20220;-84
2023/09/19 03:38:49;;;;;;;0.00;0.00;;;;;;;;;;1741607;28;20199;-84
2023/09/19 03:39:40;;;;;;;0.00;0.00;;;;;;;;;;1741560;28;20204;-84
2023/09/19 03:40:32;;;;;;;0.00;0.00;;;;;;;;;;1740613;28;20311;-85
2023/09/19 03:41:23;;;;;;;0.00;0.00;;;;;;;;;;1743195;28;20334;-84
2023/09/19 03:42:15;;;;;;;0.00;0.00;;;;;;;;;;1740565;28;20191;-82
2023/09/19 03:43:07;;;;;;;0.00;0.00;;;;;;;;;;1739137;28;20281;-84
2023/09/19 03:43:58;;;;;;;0.00;0.00;;;;;;;;;;1739978;28;20215;-83
2023/09/19 03:44:50;;;;;;;0.00;0.00;;;;;;;;;;1737793;28;20202;-83
2023/09/19 03:45:41;;;;;;;0.00;0.00;;;;;;;;;;1739923;28;20236;-84
2023/09/19 03:46:35;;;;;;;0.00;0.00;;;;;;;;;;1741165;28;20187;-84
2023/09/19 03:47:26;;;;;;;0.00;0.00;;;;;;;;;;1739619;28;20204;-83
2023/09/19 03:48:17;;;;;;;0.00;0.00;;;;;;;;;;1737154;28;20645;-83
2023/09/19 03:49:10;;;;;;;0.00;0.00;;;;;;;;;;1738092;28;20200;-83
2023/09/19 03:50:04;;;;;;;0.00;0.00;;;;;;;;;;1738645;28;20218;-83
2023/09/19 03:50:57;;;;;;;0.00;0.00;;;;;;;;;;1741379;28;20230;-83
2023/09/19 03:51:48;;;;;;;0.00;0.00;;;;;;;;;;1732570;28;20200;-83
2023/09/19 03:52:39;;;;;;;0.00;0.00;;;;;;;;;;1735734;28;20203;-84
2023/09/19 03:53:31;;;;;;;0.00;0.00;;;;;;;;;;1739077;28;20195;-84
2023/09/19 03:54:22;;;;;;;0.00;0.00;;;;;;;;;;1736621;28;20215;-82
2023/09/19 03:55:14;;;;;;;0.00;0.00;;;;;;;;;;1736167;28;20206;-82
2023/09/19 03:56:06;;;;;;;0.00;0.00;;;;;;;;;;1736471;28;20234;-83
2023/09/19 03:56:58;;;;;;;0.00;0.00;;;;;;;;;;1740082;28;20195;-82
2023/09/19 03:57:49;;;;;;;0.00;0.00;;;;;;;;;;1739137;28;20238;-82
2023/09/19 03:58:40;;;;;;;0.00;0.00;;;;;;;;;;1736954;28;20196;-82
2023/09/19 03:59:32;;;;;;;0.00;0.00;;;;;;;;;;1736760;28;20203;-82
2023/09/19 04:00:26;;;;;;;0.00;0.00;;;;;;;;;;1738317;28;20194;-82
2023/09/19 04:01:18;;;;;;;0.00;0.00;;;;;;;;;;1736528;28;20226;-82
2023/09/19 04:02:21;;;;;;;0.00;0.00;;;;;;;;;;1740288;28;20195;-82
2023/09/19 04:03:19;;;;;;;0.00;0.00;;;;;;;;;;1730123;28;20222;-82
2023/09/19 04:04:11;;;;;;;0.00;0.00;;;;;;;;;;1729094;28;20192;-82
2023/09/19 04:05:04;;;;;;;0.00;0.00;;;;;;;;;;1737807;28;20218;-83
2023/09/19 04:05:56;;;;;;;0.00;0.00;;;;;;;;;;1735358;28;20227;-82
2023/09/19 04:06:48;;;;;;;0.00;0.00;;;;;;;;;;1737858;28;20923;-81
2023/09/19 04:07:40;;;;;;;0.00;0.00;;;;;;;;;;1739647;28;20219;-81
2023/09/19 04:08:31;;;;;;;0.00;0.00;;;;;;;;;;1737549;28;20207;-83
2023/09/19 04:09:23;;;;;;;0.00;0.00;;;;;;;;;;1741811;28;20206;-82
2023/09/19 04:10:14;;;;;;;0.00;0.00;;;;;;;;;;1737152;28;20231;-84
2023/09/19 04:11:05;;;;;;;0.00;0.00;;;;;;;;;;1739920;28;20200;-83
2023/09/19 04:11:57;;;;;;;0.00;0.00;;;;;;;;;;1741011;28;20200;-83
2023/09/19 04:12:52;;;;;;;0.00;0.00;;;;;;;;;;1739023;28;20218;-83
2023/09/19 04:13:44;;;;;;;0.00;0.00;;;;;;;;;;1739028;28;20202;-84
2023/09/19 04:14:36;;;;;;;0.00;0.00;;;;;;;;;;1742173;28;20222;-85
2023/09/19 04:15:27;;;;;;;0.00;0.00;;;;;;;;;;1737354;28;20208;-85
2023/09/19 04:16:18;;;;;;;0.00;0.00;;;;;;;;;;1736852;28;20665;-83
2023/09/19 04:17:11;;;;;;;0.00;0.00;;;;;;;;;;1738923;28;20195;-82
2023/09/19 04:18:03;;;;;;;0.00;0.00;;;;;;;;;;1737547;28;20204;-82
2023/09/19 04:18:55;;;;;;;0.00;0.00;;;;;;;;;;1742535;28;20540;-83
2023/09/19 04:19:46;;;;;;;0.00;0.00;;;;;;;;;;1739940;28;20234;-83
2023/09/19 04:20:38;;;;;;;0.00;0.00;;;;;;;;;;1735754;28;20237;-82
2023/09/19 04:21:31;;;;;;;0.00;0.00;;;;;;;;;;1736002;28;20246;-82
2023/09/19 04:22:23;;;;;;;0.00;0.00;;;;;;;;;;1740155;28;20277;-82
2023/09/19 04:23:15;;;;;;;0.00;0.00;;;;;;;;;;1738015;28;20199;-83
2023/09/19 04:24:06;;;;;;;0.00;0.00;;;;;;;;;;1742649;28;20210;-83
2023/09/19 04:24:57;;;;;;;0.00;0.00;;;;;;;;;;1739076;28;20203;-82
2023/09/19 04:25:50;;;;;;;0.00;0.00;;;;;;;;;;1735921;28;20680;-81
2023/09/19 04:26:42;;;;;;;0.00;0.00;;;;;;;;;;1736474;28;20219;-83
2023/09/19 04:27:33;;;;;;;0.00;0.00;;;;;;;;;;1740113;28;20299;-83
2023/09/19 04:28:27;;;;;;;0.00;0.00;;;;;;;;;;1744414;28;20199;-83
2023/09/19 04:29:19;;;;;;;0.00;0.00;;;;;;;;;;1749035;28;20280;-83
2023/09/19 04:30:11;;;;;;;0.00;0.00;;;;;;;;;;1745432;28;20270;-82
2023/09/19 04:31:03;;;;;;;0.00;0.00;;;;;;;;;;1741819;28;20226;-81
2023/09/19 04:31:54;;;;;;;0.00;0.00;;;;;;;;;;1742381;28;20911;-82
2023/09/19 04:32:49;;;;;;;0.00;0.00;;;;;;;;;;1746634;28;20281;-81
2023/09/19 04:33:43;;;;;;;0.00;0.00;;;;;;;;;;1746336;28;20209;-82
2023/09/19 04:34:34;;;;;;;0.00;0.00;;;;;;;;;;1749856;28;20202;-82
2023/09/19 04:35:26;;;;;;;0.00;0.00;;;;;;;;;;1743921;28;20203;-81
2023/09/19 04:36:18;;;;;;;0.00;0.00;;;;;;;;;;1744438;28;20179;-82
2023/09/19 04:37:11;;;;;;;0.00;0.00;;;;;;;;;;1749390;28;20202;-82
2023/09/19 04:38:03;;;;;;;0.00;0.00;;;;;;;;;;1750028;28;20233;-81
2023/09/19 04:38:54;;;;;;;0.00;0.00;;;;;;;;;;1745685;28;20199;-82
2023/09/19 04:39:45;;;;;;;0.00;0.00;;;;;;;;;;1744640;28;20261;-82
2023/09/19 04:40:39;;;;;;;0.00;0.00;;;;;;;;;;1745209;28;20206;-82
2023/09/19 04:41:30;;;;;;;0.00;0.00;;;;;;;;;;1744142;28;20215;-81
2023/09/19 04:42:25;;;;;;;0.00;0.00;;;;;;;;;;1746250;28;20222;-81
2023/09/19 04:43:17;;;;;;;0.00;0.00;;;;;;;;;;1747384;28;20202;-81
2023/09/19 04:44:08;;;;;;;0.00;0.00;;;;;;;;;;1748633;28;20240;-81
2023/09/19 04:44:59;;;;;;;0.00;0.00;;;;;;;;;;1744373;28;20203;-81
2023/09/19 04:45:55;;;;;;;0.00;0.00;;;;;;;;;;1749538;28;20233;-81
2023/09/19 04:46:46;;;;;;;0.00;0.00;;;;;;;;;;1749208;28;20195;-81
2023/09/19 04:47:39;;;;;;;0.00;0.00;;;;;;;;;;1745155;28;20203;-81
2023/09/19 04:48:30;;;;;;;0.00;0.00;;;;;;;;;;1746010;28;20215;-81
2023/09/19 04:49:21;;;;;;;0.00;0.00;;;;;;;;;;1744718;28;20206;-81
2023/09/19 04:50:13;;;;;;;0.00;0.00;;;;;;;;;;1746410;28;20296;-84
2023/09/19 04:51:05;;;;;;;0.00;0.00;;;;;;;;;;1746728;28;20203;-82
2023/09/19 04:51:56;;;;;;;0.00;0.00;;;;;;;;;;1748535;28;20876;-82
2023/09/19 04:52:51;;;;;;;0.00;0.00;;;;;;;;;;1743434;28;20226;-81
2023/09/19 04:53:43;;;;;;;0.00;0.00;;;;;;;;;;1745686;28;20262;-82
2023/09/19 04:54:34;;;;;;;0.00;0.00;;;;;;;;;;1744184;28;20721;-82
2023/09/19 04:55:26;;;;;;;0.00;0.00;;;;;;;;;;1750177;28;20202;-82
2023/09/19 04:56:19;;;;;;;0.00;0.00;;;;;;;;;;1745558;28;20884;-82
2023/09/19 04:57:10;;;;;;;0.00;0.00;;;;;;;;;;1744434;28;20199;-83
2023/09/19 04:58:02;;;;;;;0.00;0.00;;;;;;;;;;1744910;28;20248;-81
2023/09/19 04:58:53;;;;;;;0.00;0.00;;;;;;;;;;1750762;28;20198;-82
2023/09/19 04:59:44;;;;;;;0.00;0.00;;;;;;;;;;1749656;28;20210;-83
2023/09/19 05:00:37;;;;;;;0.00;0.00;;;;;;;;;;1744002;28;20237;-82
2023/09/19 05:01:28;;;;;;;0.00;0.00;;;;;;;;;;1746005;28;20230;-82
2023/09/19 05:02:19;;;;;;;0.00;0.00;;;;;;;;;;1751684;28;20206;-82
2023/09/19 05:03:11;;;;;;;0.00;0.00;;;;;;;;;;1751652;28;20226;-81
2023/09/19 05:04:05;;;;;;;0.00;0.00;;;;;;;;;;1751772;28;20198;-82
2023/09/19 05:04:59;;;;;;;0.00;0.00;;;;;;;;;;1750823;28;20224;-82
2023/09/19 05:05:50;;;;;;;0.00;0.00;;;;;;;;;;1750087;28;20313;-82
2023/09/19 05:06:42;;;;;;;0.00;0.00;;;;;;;;;;1749295;28;20217;-81
2023/09/19 05:07:34;;;;;;;0.00;0.00;;;;;;;;;;1747620;28;20248;-82
2023/09/19 05:08:26;;;;;;;0.00;0.00;;;;;;;;;;1749378;28;20198;-81
2023/09/19 05:09:19;;;;;;;0.00;0.00;;;;;;;;;;1751564;28;20289;-81
2023/09/19 05:10:11;;;;;;;0.00;0.00;;;;;;;;;;1748607;28;20202;-83
2023/09/19 05:11:03;;;;;;;0.00;0.00;;;;;;;;;;1744574;28;20215;-81
2023/09/19 05:11:56;;;;;;;0.00;0.00;;;;;;;;;;1746823;28;20209;-82
2023/09/19 05:12:48;;;;;;;0.00;0.00;;;;;;;;;;1746356;28;20278;-82
2023/09/19 05:13:40;;;;;;;0.00;0.00;;;;;;;;;;1745883;28;20203;-82
2023/09/19 05:14:31;;;;;;;0.00;0.00;;;;;;;;;;1747123;28;20214;-82
2023/09/19 05:15:22;;;;;;;0.00;0.00;;;;;;;;;;1749141;28;20198;-82
2023/09/19 05:16:14;;;;;;;0.00;0.00;;;;;;;;;;1749734;28;20194;-82